createdAt,value
2018-09-03T00:00:43.914Z,19.59
2018-09-03T00:01:43.900Z,19.62
2018-09-03T00:02:43.941Z,19.76
2018-09-03T00:03:43.884Z,19.73
2018-09-03T00:04:43.889Z,19.63
2018-09-03T00:05:43.856Z,19.69
2018-09-03T00:06:43.842Z,19.74
2018-09-03T00:07:43.860Z,19.64
2018-09-03T00:08:43.840Z,19.63
2018-09-03T00:09:43.813Z,19.71
2018-09-03T00:10:43.808Z,19.64
2018-09-03T00:11:43.815Z,19.62
2018-09-03T00:12:43.781Z,19.63
2018-09-03T00:13:43.769Z,19.66
2018-09-03T00:14:43.790Z,19.64
2018-09-03T00:15:43.745Z,19.64
2018-09-03T00:16:43.733Z,19.62
2018-09-03T00:17:43.721Z,19.66
2018-09-03T00:18:43.803Z,19.54
2018-09-03T00:19:43.739Z,19.59
2018-09-03T00:20:43.688Z,19.51
2018-09-03T00:21:43.724Z,19.52
2018-09-03T00:22:43.663Z,19.51
2018-09-03T00:23:43.659Z,19.49
2018-09-03T00:24:43.665Z,19.54
2018-09-03T00:25:43.629Z,19.45
2018-09-03T00:26:43.661Z,19.44
2018-09-03T00:27:43.632Z,19.48
2018-09-03T00:28:43.605Z,19.44
2018-09-03T00:29:43.598Z,19.41
2018-09-03T00:30:43.604Z,19.41
2018-09-03T00:31:43.566Z,19.40
2018-09-03T00:32:43.558Z,19.36
2018-09-03T00:33:43.543Z,19.39
2018-09-03T00:34:43.532Z,19.41
2018-09-03T00:35:43.553Z,19.26
2018-09-03T00:36:43.506Z,19.27
2018-09-03T00:37:43.494Z,19.21
2018-09-03T00:38:43.500Z,19.18
2018-09-03T00:39:43.475Z,19.22
2018-09-03T00:40:43.489Z,19.19
2018-09-03T00:41:43.457Z,19.09
2018-09-03T00:42:43.441Z,19.04
2018-09-03T00:43:43.431Z,18.95
2018-09-03T00:44:43.416Z,18.98
2018-09-03T00:45:43.454Z,19.02
2018-09-03T00:46:43.400Z,18.98
2018-09-03T00:47:43.381Z,18.90
2018-09-03T00:48:43.381Z,18.93
2018-09-03T00:49:43.368Z,18.95
2018-09-03T00:50:43.391Z,18.88
2018-09-03T00:51:43.342Z,18.90
2018-09-03T00:52:43.333Z,18.86
2018-09-03T00:53:43.321Z,18.90
2018-09-03T00:54:43.350Z,18.89
2018-09-03T00:55:43.302Z,18.93
2018-09-03T00:56:43.286Z,19.00
2018-09-03T00:57:43.279Z,18.88
2018-09-03T00:58:43.306Z,18.90
2018-09-03T00:59:43.257Z,18.92
2018-09-03T01:00:43.251Z,18.88
2018-09-03T01:01:43.351Z,18.83
2018-09-03T01:02:43.232Z,18.84
2018-09-03T01:03:43.253Z,18.83
2018-09-03T01:04:43.206Z,18.90
2018-09-03T01:05:43.198Z,18.81
2018-09-03T01:06:43.181Z,18.89
2018-09-03T01:07:43.173Z,18.93
2018-09-03T01:08:43.195Z,18.78
2018-09-03T01:09:43.156Z,18.78
2018-09-03T01:10:43.174Z,18.80
2018-09-03T01:11:43.131Z,18.83
2018-09-03T01:12:43.146Z,18.81
2018-09-03T01:13:43.114Z,18.81
2018-09-03T01:14:43.093Z,18.78
2018-09-03T01:15:43.088Z,18.80
2018-09-03T01:16:43.112Z,18.77
2018-09-03T01:17:43.070Z,18.75
2018-09-03T01:18:43.059Z,18.81
2018-09-03T01:19:43.071Z,18.80
2018-09-03T01:20:43.039Z,18.80
2018-09-03T01:21:43.059Z,18.77
2018-09-03T01:22:43.011Z,18.77
2018-09-03T01:23:42.996Z,18.80
2018-09-03T01:24:42.987Z,18.74
2018-09-03T01:25:42.970Z,18.77
2018-09-03T01:26:42.996Z,18.93
2018-09-03T01:27:42.953Z,18.78
2018-09-03T01:28:43.002Z,18.93
2018-09-03T01:29:43.081Z,18.86
2018-09-03T01:30:42.966Z,18.84
2018-09-03T01:31:42.941Z,18.90
2018-09-03T01:32:42.896Z,18.88
2018-09-03T01:33:42.919Z,18.90
2018-09-03T01:34:42.875Z,18.88
2018-09-03T01:35:42.925Z,18.90
2018-09-03T01:36:42.856Z,18.86
2018-09-03T01:37:42.839Z,18.89
2018-09-03T01:38:42.837Z,19.00
2018-09-03T01:39:42.831Z,18.99
2018-09-03T01:40:42.829Z,18.99
2018-09-03T01:41:42.839Z,18.96
2018-09-03T01:42:42.787Z,18.89
2018-09-03T01:43:42.824Z,19.00
2018-09-03T01:44:42.839Z,18.99
2018-09-03T01:45:42.759Z,19.04
2018-09-03T01:46:42.751Z,18.98
2018-09-03T01:47:42.736Z,18.92
2018-09-03T01:48:42.754Z,18.95
2018-09-03T01:49:42.717Z,18.99
2018-09-03T01:50:42.701Z,18.89
2018-09-03T01:51:42.714Z,18.93
2018-09-03T01:52:42.682Z,18.86
2018-09-03T01:53:42.711Z,18.95
2018-09-03T01:54:42.658Z,18.92
2018-09-03T01:55:42.652Z,18.96
2018-09-03T01:56:42.640Z,18.96
2018-09-03T01:57:42.626Z,18.99
2018-09-03T01:58:42.643Z,18.95
2018-09-03T01:59:42.661Z,18.88
2018-09-03T02:00:42.598Z,18.86
2018-09-03T02:01:42.579Z,18.93
2018-09-03T02:02:42.570Z,18.93
2018-09-03T02:03:42.606Z,18.89
2018-09-03T02:04:42.554Z,18.86
2018-09-03T02:05:42.535Z,18.90
2018-09-03T02:06:42.557Z,18.84
2018-09-03T02:07:42.528Z,18.84
2018-09-03T02:08:42.576Z,18.92
2018-09-03T02:09:42.495Z,18.93
2018-09-03T02:10:42.518Z,18.88
2018-09-03T02:11:42.514Z,18.81
2018-09-03T02:12:42.460Z,18.90
2018-09-03T02:13:42.451Z,18.84
2018-09-03T02:14:42.448Z,18.84
2018-09-03T02:15:42.430Z,18.75
2018-09-03T02:16:42.442Z,18.75
2018-09-03T02:17:42.411Z,18.74
2018-09-03T02:18:42.425Z,18.77
2018-09-03T02:19:42.388Z,18.81
2018-09-03T02:20:42.370Z,18.75
2018-09-03T02:21:42.361Z,18.77
2018-09-03T02:22:42.380Z,18.74
2018-09-03T02:23:42.340Z,18.74
2018-09-03T02:24:42.371Z,18.73
2018-09-03T02:25:42.378Z,18.77
2018-09-03T02:26:42.311Z,18.78
2018-09-03T02:27:42.300Z,18.86
2018-09-03T02:28:42.286Z,18.84
2018-09-03T02:29:42.278Z,18.78
2018-09-03T02:30:42.290Z,18.75
2018-09-03T02:31:42.249Z,18.74
2018-09-03T02:32:42.235Z,18.81
2018-09-03T02:33:42.224Z,18.84
2018-09-03T02:34:42.220Z,18.77
2018-09-03T02:35:42.232Z,18.78
2018-09-03T02:36:42.201Z,18.68
2018-09-03T02:37:42.183Z,18.75
2018-09-03T02:38:42.167Z,18.78
2018-09-03T02:39:42.163Z,18.65
2018-09-03T02:40:42.240Z,18.65
2018-09-03T02:41:42.139Z,18.63
2018-09-03T02:42:42.127Z,18.63
2018-09-03T02:43:42.115Z,18.63
2018-09-03T02:44:42.107Z,18.60
2018-09-03T02:45:42.122Z,18.60
2018-09-03T02:46:42.085Z,18.63
2018-09-03T02:47:42.082Z,18.62
2018-09-03T02:48:42.133Z,18.70
2018-09-03T02:49:42.067Z,18.56
2018-09-03T02:50:42.035Z,18.65
2018-09-03T02:51:42.029Z,18.63
2018-09-03T02:52:42.019Z,18.62
2018-09-03T02:53:42.007Z,18.59
2018-09-03T02:54:42.026Z,18.58
2018-09-03T02:55:41.990Z,18.55
2018-09-03T02:56:42.010Z,18.58
2018-09-03T02:57:41.966Z,18.59
2018-09-03T02:58:41.948Z,18.52
2018-09-03T02:59:41.940Z,18.58
2018-09-03T03:00:41.961Z,18.55
2018-09-03T03:01:41.916Z,18.56
2018-09-03T03:02:41.905Z,18.56
2018-09-03T03:03:41.924Z,18.55
2018-09-03T03:04:41.937Z,18.56
2018-09-03T03:05:41.883Z,18.52
2018-09-03T03:06:41.859Z,18.56
2018-09-03T03:07:41.846Z,18.53
2018-09-03T03:08:41.850Z,18.55
2018-09-03T03:09:41.867Z,18.55
2018-09-03T03:10:41.819Z,18.56
2018-09-03T03:11:41.863Z,18.50
2018-09-03T03:12:41.836Z,18.59
2018-09-03T03:13:41.781Z,18.50
2018-09-03T03:14:41.803Z,18.50
2018-09-03T03:15:41.761Z,18.52
2018-09-03T03:16:41.750Z,18.49
2018-09-03T03:17:41.736Z,18.47
2018-09-03T03:18:41.757Z,18.55
2018-09-03T03:19:41.713Z,18.58
2018-09-03T03:20:41.715Z,18.47
2018-09-03T03:21:41.717Z,18.59
2018-09-03T03:22:41.682Z,18.50
2018-09-03T03:23:41.694Z,18.47
2018-09-03T03:24:41.694Z,18.49
2018-09-03T03:25:41.651Z,18.43
2018-09-03T03:26:41.639Z,18.41
2018-09-03T03:27:41.633Z,18.50
2018-09-03T03:28:41.632Z,18.50
2018-09-03T03:29:41.643Z,18.38
2018-09-03T03:30:41.594Z,18.40
2018-09-03T03:31:41.595Z,18.35
2018-09-03T03:32:41.576Z,18.41
2018-09-03T03:33:41.577Z,18.34
2018-09-03T03:34:41.599Z,18.29
2018-09-03T03:35:41.556Z,18.28
2018-09-03T03:36:41.537Z,18.33
2018-09-03T03:37:41.524Z,18.28
2018-09-03T03:38:41.506Z,18.22
2018-09-03T03:39:41.528Z,18.08
2018-09-03T03:40:41.489Z,18.22
2018-09-03T03:41:41.482Z,18.15
2018-09-03T03:42:41.464Z,18.13
2018-09-03T03:43:41.456Z,18.10
2018-09-03T03:44:41.574Z,18.10
2018-09-03T03:45:41.432Z,18.00
2018-09-03T03:46:41.451Z,18.08
2018-09-03T03:47:41.414Z,18.05
2018-09-03T03:48:41.525Z,18.10
2018-09-03T03:49:41.387Z,18.05
2018-09-03T03:50:41.381Z,18.05
2018-09-03T03:51:41.365Z,18.08
2018-09-03T03:52:41.389Z,18.07
2018-09-03T03:53:41.366Z,18.01
2018-09-03T03:54:41.336Z,18.08
2018-09-03T03:55:41.329Z,18.05
2018-09-03T03:56:41.313Z,18.04
2018-09-03T03:57:41.351Z,18.08
2018-09-03T03:58:41.293Z,18.08
2018-09-03T03:59:41.280Z,18.08
2018-09-03T04:00:41.348Z,18.05
2018-09-03T04:01:41.258Z,18.08
2018-09-03T04:02:41.287Z,18.11
2018-09-03T04:03:41.263Z,18.08
2018-09-03T04:04:41.236Z,18.07
2018-09-03T04:05:41.219Z,18.08
2018-09-03T04:06:41.228Z,18.08
2018-09-03T04:07:41.223Z,18.08
2018-09-03T04:08:41.216Z,18.08
2018-09-03T04:09:41.170Z,18.08
2018-09-03T04:10:41.199Z,18.05
2018-09-03T04:11:41.154Z,18.05
2018-09-03T04:12:41.134Z,17.98
2018-09-03T04:13:41.122Z,18.05
2018-09-03T04:14:41.123Z,18.08
2018-09-03T04:15:41.157Z,18.07
2018-09-03T04:16:41.096Z,18.08
2018-09-03T04:17:41.125Z,18.08
2018-09-03T04:18:41.093Z,18.08
2018-09-03T04:19:41.071Z,18.05
2018-09-03T04:20:41.048Z,18.07
2018-09-03T04:21:41.040Z,18.04
2018-09-03T04:22:41.087Z,18.11
2018-09-03T04:23:41.033Z,18.10
2018-09-03T04:24:41.074Z,18.05
2018-09-03T04:25:40.992Z,18.07
2018-09-03T04:26:40.983Z,18.08
2018-09-03T04:27:41.032Z,18.11
2018-09-03T04:28:41.019Z,18.05
2018-09-03T04:29:40.948Z,18.18
2018-09-03T04:30:40.942Z,18.22
2018-09-03T04:31:40.929Z,18.18
2018-09-03T04:32:40.956Z,18.13
2018-09-03T04:33:40.908Z,18.18
2018-09-03T04:34:40.900Z,18.16
2018-09-03T04:35:40.884Z,18.18
2018-09-03T04:36:40.903Z,18.22
2018-09-03T04:37:40.861Z,18.19
2018-09-03T04:38:40.922Z,18.33
2018-09-03T04:39:40.886Z,18.18
2018-09-03T04:40:40.922Z,18.23
2018-09-03T04:41:40.824Z,18.33
2018-09-03T04:42:40.816Z,18.26
2018-09-03T04:43:40.802Z,18.33
2018-09-03T04:44:40.788Z,18.22
2018-09-03T04:45:40.824Z,18.18
2018-09-03T04:46:40.768Z,18.22
2018-09-03T04:47:40.759Z,18.28
2018-09-03T04:48:40.743Z,18.19
2018-09-03T04:49:40.740Z,18.26
2018-09-03T04:50:40.768Z,18.18
2018-09-03T04:51:40.744Z,18.15
2018-09-03T04:52:40.738Z,18.23
2018-09-03T04:53:40.735Z,18.19
2018-09-03T04:54:40.724Z,18.19
2018-09-03T04:55:40.667Z,18.26
2018-09-03T04:56:40.741Z,18.28
2018-09-03T04:57:40.645Z,18.23
2018-09-03T04:58:40.696Z,18.22
2018-09-03T04:59:40.716Z,18.29
2018-09-03T05:00:40.611Z,18.26
2018-09-03T05:01:40.649Z,18.37
2018-09-03T05:02:40.623Z,18.40
2018-09-03T05:03:40.595Z,18.40
2018-09-03T05:04:40.599Z,18.37
2018-09-03T05:05:40.619Z,18.40
2018-09-03T05:06:40.553Z,18.44
2018-09-03T05:07:40.583Z,18.52
2018-09-03T05:08:40.526Z,18.47
2018-09-03T05:09:40.558Z,18.47
2018-09-03T05:10:40.509Z,18.52
2018-09-03T05:11:40.604Z,18.53
2018-09-03T05:12:40.485Z,18.52
2018-09-03T05:13:40.475Z,18.45
2018-09-03T05:14:40.459Z,18.52
2018-09-03T05:15:40.451Z,18.55
2018-09-03T05:16:40.463Z,18.60
2018-09-03T05:17:40.438Z,18.55
2018-09-03T05:18:40.414Z,18.62
2018-09-03T05:19:40.438Z,18.60
2018-09-03T05:20:40.453Z,18.68
2018-09-03T05:21:40.426Z,18.60
2018-09-03T05:22:40.373Z,18.66
2018-09-03T05:23:40.372Z,18.62
2018-09-03T05:24:40.354Z,18.73
2018-09-03T05:25:40.379Z,18.65
2018-09-03T05:26:40.369Z,18.78
2018-09-03T05:27:40.348Z,18.71
2018-09-03T05:28:40.306Z,18.63
2018-09-03T05:29:40.301Z,18.59
2018-09-03T05:30:40.290Z,18.63
2018-09-03T05:31:40.309Z,18.75
2018-09-03T05:32:40.269Z,18.74
2018-09-03T05:33:40.257Z,18.63
2018-09-03T05:34:40.242Z,18.74
2018-09-03T05:35:40.232Z,18.77
2018-09-03T05:36:40.268Z,18.74
2018-09-03T05:37:40.210Z,18.66
2018-09-03T05:38:40.198Z,18.77
2018-09-03T05:39:40.222Z,18.80
2018-09-03T05:40:40.185Z,18.66
2018-09-03T05:41:40.173Z,18.71
2018-09-03T05:42:40.158Z,18.70
2018-09-03T05:43:40.274Z,18.74
2018-09-03T05:44:40.178Z,18.65
2018-09-03T05:45:40.160Z,18.65
2018-09-03T05:46:40.118Z,18.74
2018-09-03T05:47:40.104Z,18.78
2018-09-03T05:48:40.115Z,18.65
2018-09-03T05:49:40.090Z,18.74
2018-09-03T05:50:40.161Z,18.81
2018-09-03T05:51:40.059Z,18.77
2018-09-03T05:52:40.158Z,18.78
2018-09-03T05:53:40.079Z,18.81
2018-09-03T05:54:40.053Z,18.71
2018-09-03T05:55:40.064Z,18.78
2018-09-03T05:56:40.000Z,18.77
2018-09-03T05:57:39.987Z,18.77
2018-09-03T05:58:39.992Z,18.81
2018-09-03T05:59:39.998Z,18.62
2018-09-03T06:00:39.962Z,18.74
2018-09-03T06:01:39.953Z,18.63
2018-09-03T06:02:39.938Z,18.74
2018-09-03T06:03:39.981Z,18.75
2018-09-03T06:04:39.914Z,18.74
2018-09-03T06:05:39.951Z,18.75
2018-09-03T06:06:39.896Z,18.70
2018-09-03T06:07:39.879Z,18.73
2018-09-03T06:08:39.874Z,18.70
2018-09-03T06:09:39.903Z,18.74
2018-09-03T06:10:39.919Z,18.78
2018-09-03T06:11:39.839Z,18.77
2018-09-03T06:12:39.829Z,18.70
2018-09-03T06:13:39.847Z,18.77
2018-09-03T06:14:39.807Z,18.80
2018-09-03T06:15:39.824Z,18.75
2018-09-03T06:16:39.802Z,18.77
2018-09-03T06:17:39.808Z,18.74
2018-09-03T06:18:39.763Z,18.74
2018-09-03T06:19:39.758Z,18.81
2018-09-03T06:20:39.771Z,18.84
2018-09-03T06:21:39.771Z,18.78
2018-09-03T06:22:39.717Z,18.86
2018-09-03T06:23:39.723Z,18.88
2018-09-03T06:24:39.709Z,18.81
2018-09-03T06:25:39.720Z,18.78
2018-09-03T06:26:39.733Z,18.86
2018-09-03T06:27:39.661Z,18.86
2018-09-03T06:28:39.653Z,18.84
2018-09-03T06:29:39.652Z,18.86
2018-09-03T06:30:39.628Z,18.84
2018-09-03T06:31:39.646Z,18.86
2018-09-03T06:32:39.695Z,18.84
2018-09-03T06:33:39.604Z,18.98
2018-09-03T06:34:39.592Z,18.89
2018-09-03T06:35:39.582Z,18.89
2018-09-03T06:36:39.598Z,18.95
2018-09-03T06:37:39.555Z,18.92
2018-09-03T06:38:39.556Z,19.00
2018-09-03T06:39:39.572Z,18.88
2018-09-03T06:40:39.530Z,18.95
2018-09-03T06:41:39.507Z,18.99
2018-09-03T06:42:39.501Z,18.99
2018-09-03T06:43:39.485Z,19.00
2018-09-03T06:44:39.503Z,18.95
2018-09-03T06:45:39.465Z,19.08
2018-09-03T06:46:39.449Z,18.98
2018-09-03T06:47:39.440Z,19.11
2018-09-03T06:48:39.444Z,19.08
2018-09-03T06:49:39.458Z,19.11
2018-09-03T06:50:39.441Z,19.09
2018-09-03T06:51:39.398Z,19.14
2018-09-03T06:52:39.396Z,19.15
2018-09-03T06:53:39.377Z,19.15
2018-09-03T06:54:39.367Z,19.15
2018-09-03T06:55:39.379Z,19.16
2018-09-03T06:56:39.410Z,19.15
2018-09-03T06:57:39.364Z,19.22
2018-09-03T06:58:39.319Z,19.26
2018-09-03T06:59:39.326Z,19.22
2018-09-03T07:00:39.297Z,19.33
2018-09-03T07:01:39.337Z,19.27
2018-09-03T07:02:39.277Z,19.19
2018-09-03T07:03:39.263Z,19.24
2018-09-03T07:04:39.255Z,19.26
2018-09-03T07:05:39.240Z,19.24
2018-09-03T07:06:39.291Z,19.26
2018-09-03T07:07:39.245Z,19.19
2018-09-03T07:08:39.206Z,19.22
2018-09-03T07:09:39.195Z,19.18
2018-09-03T07:10:39.212Z,19.14
2018-09-03T07:11:39.175Z,19.18
2018-09-03T07:12:39.260Z,19.18
2018-09-03T07:13:39.161Z,19.14
2018-09-03T07:14:39.163Z,19.18
2018-09-03T07:15:39.125Z,19.16
2018-09-03T07:16:39.152Z,19.21
2018-09-03T07:17:39.113Z,19.21
2018-09-03T07:18:39.134Z,19.19
2018-09-03T07:19:39.085Z,19.19
2018-09-03T07:20:39.074Z,19.31
2018-09-03T07:21:39.107Z,19.30
2018-09-03T07:22:39.049Z,19.30
2018-09-03T07:23:39.042Z,19.27
2018-09-03T07:24:39.028Z,19.34
2018-09-03T07:25:39.020Z,19.37
2018-09-03T07:26:39.043Z,19.36
2018-09-03T07:27:38.997Z,19.40
2018-09-03T07:28:39.117Z,19.45
2018-09-03T07:29:38.970Z,19.37
2018-09-03T07:30:38.961Z,19.44
2018-09-03T07:31:38.972Z,19.48
2018-09-03T07:32:38.965Z,19.49
2018-09-03T07:33:38.924Z,19.51
2018-09-03T07:34:38.915Z,19.55
2018-09-03T07:35:38.979Z,19.52
2018-09-03T07:36:38.892Z,19.51
2018-09-03T07:37:38.920Z,19.63
2018-09-03T07:38:38.872Z,19.67
2018-09-03T07:39:38.860Z,19.67
2018-09-03T07:40:38.848Z,19.59
2018-09-03T07:41:38.842Z,19.69
2018-09-03T07:42:38.855Z,19.66
2018-09-03T07:43:38.814Z,19.67
2018-09-03T07:44:38.838Z,19.54
2018-09-03T07:45:38.796Z,19.64
2018-09-03T07:46:38.793Z,19.63
2018-09-03T07:47:38.863Z,19.63
2018-09-03T07:48:38.762Z,19.56
2018-09-03T07:49:38.750Z,19.56
2018-09-03T07:50:38.739Z,19.52
2018-09-03T07:51:38.731Z,19.62
2018-09-03T07:52:38.805Z,19.52
2018-09-03T07:53:38.706Z,19.54
2018-09-03T07:54:38.697Z,19.63
2018-09-03T07:55:38.684Z,19.55
2018-09-03T07:56:38.676Z,19.55
2018-09-03T07:57:38.709Z,19.56
2018-09-03T07:58:38.651Z,19.58
2018-09-03T07:59:38.638Z,19.64
2018-09-03T08:00:38.630Z,19.49
2018-09-03T08:01:38.616Z,19.58
2018-09-03T08:02:38.652Z,19.51
2018-09-03T08:03:38.627Z,19.52
2018-09-03T08:04:38.587Z,19.52
2018-09-03T08:05:38.569Z,19.52
2018-09-03T08:06:38.562Z,19.45
2018-09-03T08:07:38.586Z,19.56
2018-09-03T08:08:38.581Z,19.52
2018-09-03T08:09:38.559Z,19.55
2018-09-03T08:10:38.517Z,19.52
2018-09-03T08:11:38.528Z,19.49
2018-09-03T08:12:38.614Z,19.52
2018-09-03T08:13:38.506Z,19.54
2018-09-03T08:14:38.570Z,19.54
2018-09-03T08:15:38.468Z,19.52
2018-09-03T08:16:38.460Z,19.58
2018-09-03T08:17:38.441Z,19.51
2018-09-03T08:18:38.430Z,19.58
2018-09-03T08:19:38.462Z,19.52
2018-09-03T08:20:38.414Z,19.63
2018-09-03T08:21:38.428Z,19.58
2018-09-03T08:22:38.388Z,19.52
2018-09-03T08:23:38.384Z,19.58
2018-09-03T08:24:38.513Z,19.64
2018-09-03T08:25:38.388Z,19.51
2018-09-03T08:26:38.345Z,19.51
2018-09-03T08:27:38.343Z,19.62
2018-09-03T08:28:38.336Z,19.49
2018-09-03T08:29:38.312Z,19.51
2018-09-03T08:30:38.393Z,19.62
2018-09-03T08:31:38.292Z,19.63
2018-09-03T08:32:38.330Z,19.55
2018-09-03T08:33:38.269Z,19.55
2018-09-03T08:34:38.285Z,19.56
2018-09-03T08:35:38.288Z,19.52
2018-09-03T08:36:38.272Z,19.59
2018-09-03T08:37:38.240Z,19.58
2018-09-03T08:38:38.218Z,19.54
2018-09-03T08:39:38.202Z,19.56
2018-09-03T08:40:38.252Z,19.55
2018-09-03T08:41:38.211Z,19.62
2018-09-03T08:42:38.165Z,19.63
2018-09-03T08:43:38.157Z,19.56
2018-09-03T08:44:38.165Z,19.55
2018-09-03T08:45:38.133Z,19.59
2018-09-03T08:46:38.160Z,19.66
2018-09-03T08:47:38.144Z,19.55
2018-09-03T08:48:39.078Z,19.69
2018-09-03T08:49:38.099Z,19.67
2018-09-03T08:50:38.102Z,19.59
2018-09-03T08:51:38.106Z,19.66
2018-09-03T08:52:38.070Z,19.67
2018-09-03T08:53:38.046Z,19.70
2018-09-03T08:54:38.060Z,19.62
2018-09-03T08:55:38.019Z,19.81
2018-09-03T08:56:38.019Z,19.76
2018-09-03T08:57:38.002Z,19.67
2018-09-03T08:58:38.010Z,19.71
2018-09-03T08:59:37.971Z,19.71
2018-09-03T09:00:37.962Z,19.74
2018-09-03T09:01:37.949Z,19.74
2018-09-03T09:02:37.943Z,19.82
2018-09-03T09:03:37.957Z,19.79
2018-09-03T09:04:38.010Z,19.77
2018-09-03T09:05:37.911Z,19.76
2018-09-03T09:06:37.901Z,19.74
2018-09-03T09:07:37.929Z,19.86
2018-09-03T09:08:37.879Z,19.84
2018-09-03T09:09:37.903Z,19.76
2018-09-03T09:10:37.855Z,19.76
2018-09-03T09:11:37.850Z,19.81
2018-09-03T09:12:37.864Z,19.85
2018-09-03T09:13:37.821Z,19.86
2018-09-03T09:14:37.813Z,19.88
2018-09-03T09:15:37.799Z,19.76
2018-09-03T09:16:37.918Z,19.88
2018-09-03T09:17:37.799Z,19.85
2018-09-03T09:18:37.773Z,19.86
2018-09-03T09:19:37.767Z,19.85
2018-09-03T09:20:37.747Z,19.84
2018-09-03T09:21:37.762Z,19.81
2018-09-03T09:22:37.728Z,19.86
2018-09-03T09:23:37.713Z,19.84
2018-09-03T09:24:37.701Z,19.82
2018-09-03T09:25:37.731Z,19.82
2018-09-03T09:26:37.685Z,19.89
2018-09-03T09:27:37.677Z,19.82
2018-09-03T09:28:37.709Z,19.84
2018-09-03T09:29:37.650Z,19.88
2018-09-03T09:30:37.664Z,19.89
2018-09-03T09:31:37.624Z,19.85
2018-09-03T09:32:37.646Z,19.86
2018-09-03T09:33:37.606Z,19.84
2018-09-03T09:34:37.592Z,19.84
2018-09-03T09:35:37.594Z,19.89
2018-09-03T09:36:37.595Z,19.89
2018-09-03T09:37:37.596Z,19.92
2018-09-03T09:38:37.574Z,19.86
2018-09-03T09:39:37.552Z,19.88
2018-09-03T09:40:37.562Z,19.91
2018-09-03T09:41:37.515Z,19.94
2018-09-03T09:42:37.542Z,19.91
2018-09-03T09:43:37.492Z,19.91
2018-09-03T09:44:37.497Z,19.95
2018-09-03T09:45:37.468Z,20.00
2018-09-03T09:46:37.501Z,19.99
2018-09-03T09:47:37.465Z,19.92
2018-09-03T09:48:37.441Z,19.92
2018-09-03T09:49:37.474Z,19.94
2018-09-03T09:50:37.413Z,19.89
2018-09-03T09:51:37.435Z,19.92
2018-09-03T09:52:37.391Z,19.91
2018-09-03T09:53:37.402Z,19.99
2018-09-03T09:54:37.369Z,20.04
2018-09-03T09:55:37.369Z,19.99
2018-09-03T09:56:37.388Z,20.00
2018-09-03T09:57:37.405Z,19.94
2018-09-03T09:58:37.328Z,19.99
2018-09-03T09:59:37.324Z,19.95
2018-09-03T10:00:37.358Z,20.04
2018-09-03T10:01:37.296Z,20.04
2018-09-03T10:02:37.308Z,20.03
2018-09-03T10:03:37.275Z,20.07
2018-09-03T10:04:37.262Z,20.14
2018-09-03T10:05:37.253Z,20.09
2018-09-03T10:06:37.237Z,20.07
2018-09-03T10:07:37.353Z,20.09
2018-09-03T10:08:37.219Z,20.06
2018-09-03T10:09:37.208Z,20.11
2018-09-03T10:10:37.242Z,20.13
2018-09-03T10:11:37.211Z,20.21
2018-09-03T10:12:37.186Z,20.14
2018-09-03T10:13:37.166Z,20.14
2018-09-03T10:14:37.153Z,20.26
2018-09-03T10:15:37.188Z,20.22
2018-09-03T10:16:37.131Z,20.22
2018-09-03T10:17:37.137Z,20.25
2018-09-03T10:18:37.110Z,20.26
2018-09-03T10:19:37.103Z,20.36
2018-09-03T10:20:37.227Z,20.37
2018-09-03T10:21:37.085Z,20.36
2018-09-03T10:22:37.073Z,20.47
2018-09-03T10:23:37.055Z,20.47
2018-09-03T10:24:37.132Z,20.44
2018-09-03T10:25:37.084Z,20.37
2018-09-03T10:26:37.018Z,20.34
2018-09-03T10:27:37.015Z,20.34
2018-09-03T10:28:37.003Z,20.44
2018-09-03T10:29:36.990Z,20.47
2018-09-03T10:30:37.008Z,20.43
2018-09-03T10:31:36.998Z,20.40
2018-09-03T10:32:36.952Z,20.44
2018-09-03T10:33:36.946Z,20.40
2018-09-03T10:34:36.932Z,20.41
2018-09-03T10:35:36.927Z,20.43
2018-09-03T10:36:36.946Z,20.43
2018-09-03T10:37:36.902Z,20.39
2018-09-03T10:38:36.893Z,20.40
2018-09-03T10:39:36.882Z,20.40
2018-09-03T10:40:36.879Z,20.40
2018-09-03T10:41:36.900Z,20.44
2018-09-03T10:42:36.848Z,20.39
2018-09-03T10:43:36.867Z,20.52
2018-09-03T10:44:36.828Z,20.44
2018-09-03T10:45:36.815Z,20.58
2018-09-03T10:46:36.841Z,20.48
2018-09-03T10:47:36.845Z,20.56
2018-09-03T10:48:36.806Z,20.59
2018-09-03T10:49:36.777Z,20.65
2018-09-03T10:50:36.757Z,20.70
2018-09-03T10:51:36.745Z,20.74
2018-09-03T10:52:36.738Z,20.84
2018-09-03T10:53:36.762Z,20.88
2018-09-03T10:54:36.749Z,20.90
2018-09-03T10:55:36.704Z,20.96
2018-09-03T10:56:36.695Z,20.96
2018-09-03T10:57:36.732Z,21.02
2018-09-03T10:58:36.672Z,21.06
2018-09-03T10:59:36.671Z,21.06
2018-09-03T11:00:36.650Z,21.00
2018-09-03T11:01:36.636Z,21.15
2018-09-03T11:02:36.663Z,21.18
2018-09-03T11:03:36.618Z,21.18
2018-09-03T11:04:36.638Z,21.18
2018-09-03T11:05:36.642Z,21.24
2018-09-03T11:06:36.589Z,21.24
2018-09-03T11:07:36.568Z,21.27
2018-09-03T11:08:36.559Z,21.30
2018-09-03T11:09:36.546Z,21.39
2018-09-03T11:10:36.584Z,21.42
2018-09-03T11:11:36.529Z,21.51
2018-09-03T11:12:36.520Z,21.52
2018-09-03T11:13:36.515Z,21.58
2018-09-03T11:14:36.517Z,21.54
2018-09-03T11:15:36.525Z,21.43
2018-09-03T11:16:36.486Z,21.54
2018-09-03T11:17:36.506Z,21.55
2018-09-03T11:18:36.461Z,21.54
2018-09-03T11:19:36.442Z,21.43
2018-09-03T11:20:36.456Z,21.51
2018-09-03T11:21:36.633Z,21.50
2018-09-03T11:22:36.441Z,21.45
2018-09-03T11:23:36.497Z,21.48
2018-09-03T11:24:36.384Z,21.46
2018-09-03T11:25:36.377Z,21.46
2018-09-03T11:26:36.401Z,21.43
2018-09-03T11:27:36.390Z,21.43
2018-09-03T11:28:36.426Z,21.58
2018-09-03T11:29:36.338Z,21.52
2018-09-03T11:30:36.395Z,21.54
2018-09-03T11:31:36.309Z,21.45
2018-09-03T11:32:36.336Z,21.54
2018-09-03T11:33:36.295Z,21.51
2018-09-03T11:34:36.312Z,21.55
2018-09-03T11:35:36.263Z,21.51
2018-09-03T11:36:36.257Z,21.52
2018-09-03T11:37:36.242Z,21.54
2018-09-03T11:38:36.361Z,21.60
2018-09-03T11:39:36.257Z,21.66
2018-09-03T11:40:36.210Z,21.73
2018-09-03T11:41:36.242Z,21.76
2018-09-03T11:42:36.191Z,21.72
2018-09-03T11:43:36.181Z,21.69
2018-09-03T11:44:36.173Z,21.72
2018-09-03T11:45:36.188Z,21.83
2018-09-03T11:46:36.150Z,21.75
2018-09-03T11:47:36.138Z,21.85
2018-09-03T11:48:36.127Z,21.83
2018-09-03T11:49:36.112Z,21.76
2018-09-03T11:50:36.134Z,21.80
2018-09-03T11:51:36.094Z,21.88
2018-09-03T11:52:36.084Z,21.88
2018-09-03T11:53:36.145Z,21.92
2018-09-03T11:54:36.078Z,21.93
2018-09-03T11:55:36.050Z,21.91
2018-09-03T11:56:36.075Z,21.92
2018-09-03T11:57:36.042Z,22.04
2018-09-03T11:58:36.053Z,21.98
2018-09-03T11:59:36.012Z,22.00
2018-09-03T12:00:36.160Z,21.99
2018-09-03T12:01:35.984Z,22.00
2018-09-03T12:02:35.997Z,22.00
2018-09-03T12:03:35.975Z,21.99
2018-09-03T12:04:35.954Z,21.99
2018-09-03T12:05:35.947Z,22.10
2018-09-03T12:06:35.976Z,22.04
2018-09-03T12:07:35.965Z,22.10
2018-09-03T12:08:35.918Z,22.11
2018-09-03T12:09:35.896Z,22.17
2018-09-03T12:10:35.921Z,22.18
2018-09-03T12:11:35.875Z,22.23
2018-09-03T12:12:35.898Z,22.23
2018-09-03T12:13:35.854Z,22.28
2018-09-03T12:14:35.851Z,22.28
2018-09-03T12:15:35.835Z,22.39
2018-09-03T12:16:35.833Z,22.41
2018-09-03T12:17:35.842Z,22.38
2018-09-03T12:18:35.807Z,22.36
2018-09-03T12:19:35.798Z,22.44
2018-09-03T12:20:35.787Z,22.53
2018-09-03T12:21:35.799Z,22.47
2018-09-03T12:22:35.758Z,22.48
2018-09-03T12:23:35.751Z,22.54
2018-09-03T12:24:35.782Z,22.43
2018-09-03T12:25:35.727Z,22.54
2018-09-03T12:26:35.718Z,22.50
2018-09-03T12:27:35.742Z,22.62
2018-09-03T12:28:35.689Z,22.59
2018-09-03T12:29:35.677Z,22.47
2018-09-03T12:30:35.676Z,22.53
2018-09-03T12:31:35.656Z,22.38
2018-09-03T12:32:35.673Z,22.43
2018-09-03T12:33:35.633Z,22.50
2018-09-03T12:34:35.623Z,22.50
2018-09-03T12:35:35.609Z,22.53
2018-09-03T12:36:35.743Z,22.50
2018-09-03T12:37:35.593Z,22.48
2018-09-03T12:38:35.588Z,22.57
2018-09-03T12:39:35.571Z,22.45
2018-09-03T12:40:35.557Z,22.59
2018-09-03T12:41:40.702Z,22.55
2018-09-03T12:42:35.559Z,22.59
2018-09-03T12:43:35.529Z,22.57
2018-09-03T12:44:35.571Z,22.55
2018-09-03T12:45:35.505Z,22.59
2018-09-03T12:46:35.496Z,22.62
2018-09-03T12:47:35.481Z,22.62
2018-09-03T12:48:35.467Z,22.60
2018-09-03T12:49:35.456Z,22.57
2018-09-03T12:50:35.474Z,22.65
2018-09-03T12:51:35.451Z,22.59
2018-09-03T12:52:36.137Z,22.60